createdAt,value
2019-03-18T00:00:31.677Z,99.90
2019-03-18T00:03:00.201Z,99.90
2019-03-18T00:05:28.805Z,99.90
2019-03-18T00:07:57.340Z,99.90
2019-03-18T00:10:25.896Z,99.90
2019-03-18T00:12:54.489Z,99.90
2019-03-18T00:15:23.015Z,99.90
2019-03-18T00:17:51.574Z,99.90
2019-03-18T00:20:20.105Z,99.90
2019-03-18T00:22:48.666Z,99.90
2019-03-18T00:25:17.445Z,99.90
2019-03-18T00:27:45.927Z,99.90
2019-03-18T00:30:18.670Z,99.90
2019-03-18T00:32:47.141Z,99.90
2019-03-18T00:35:15.694Z,99.90
2019-03-18T00:37:44.227Z,99.90
2019-03-18T00:40:15.855Z,99.90
2019-03-18T00:42:44.485Z,99.90
2019-03-18T00:45:15.121Z,99.90
2019-03-18T00:47:43.760Z,99.90
2019-03-18T00:50:16.616Z,99.90
2019-03-18T00:52:45.145Z,99.90
2019-03-18T00:55:13.817Z,99.90
2019-03-18T00:57:42.359Z,99.90
2019-03-18T01:00:15.664Z,99.90
2019-03-18T01:02:44.149Z,99.90
2019-03-18T01:05:13.096Z,99.90
2019-03-18T01:07:41.788Z,99.90
2019-03-18T01:10:14.454Z,99.90
2019-03-18T01:12:43.188Z,99.90
2019-03-18T01:15:12.393Z,99.90
2019-03-18T01:17:40.857Z,99.90
2019-03-18T01:20:10.960Z,99.90
2019-03-18T01:22:39.511Z,99.90
2019-03-18T01:25:09.492Z,99.90
2019-03-18T01:27:37.983Z,99.90
2019-03-18T01:30:11.256Z,99.90
2019-03-18T01:32:39.701Z,99.90
2019-03-18T01:35:10.089Z,99.90
2019-03-18T01:37:38.529Z,99.90
2019-03-18T01:40:11.562Z,99.90
2019-03-18T01:42:40.085Z,99.90
2019-03-18T01:45:09.886Z,99.90
2019-03-18T01:47:38.421Z,99.90
2019-03-18T01:50:10.061Z,99.90
2019-03-18T01:52:38.523Z,99.90
2019-03-18T01:55:07.661Z,99.90
2019-03-18T01:57:36.121Z,99.90
2019-03-18T02:00:09.673Z,99.90
2019-03-18T02:02:38.198Z,99.90
2019-03-18T02:05:08.569Z,99.90
2019-03-18T02:07:37.170Z,99.90
2019-03-18T02:10:11.015Z,99.90
2019-03-18T02:12:39.506Z,99.90
2019-03-18T02:15:10.312Z,99.90
2019-03-18T02:17:38.784Z,99.90
2019-03-18T02:20:12.791Z,99.90
2019-03-18T02:22:41.279Z,99.90
2019-03-18T02:25:10.461Z,99.90
2019-03-18T02:27:38.932Z,99.90
2019-03-18T02:30:12.629Z,99.90
2019-03-18T02:32:41.125Z,99.90
2019-03-18T02:35:09.724Z,99.90
2019-03-18T02:37:38.183Z,99.90
2019-03-18T02:40:10.623Z,99.90
2019-03-18T02:42:39.165Z,99.90
2019-03-18T02:45:09.656Z,99.90
2019-03-18T02:47:38.102Z,99.90
2019-03-18T02:50:07.624Z,99.90
2019-03-18T02:52:36.090Z,99.90
2019-03-18T02:55:06.166Z,99.90
2019-03-18T02:57:34.631Z,99.90
2019-03-18T03:00:04.357Z,99.90
2019-03-18T03:02:32.845Z,99.90
2019-03-18T03:05:01.398Z,99.90
2019-03-18T03:07:29.966Z,99.90
2019-03-18T03:09:58.426Z,99.90
2019-03-18T03:12:26.897Z,99.90
2019-03-18T03:14:55.369Z,99.90
2019-03-18T03:17:24.112Z,99.90
2019-03-18T03:19:52.568Z,99.90
2019-03-18T03:22:21.055Z,99.90
2019-03-18T03:24:49.517Z,99.90
2019-03-18T03:27:18.031Z,99.90
2019-03-18T03:29:46.814Z,99.90
2019-03-18T03:32:15.296Z,99.90
2019-03-18T03:34:43.745Z,99.90
2019-03-18T03:37:12.286Z,99.90
2019-03-18T03:39:40.749Z,99.90
2019-03-18T03:42:09.301Z,99.90
2019-03-18T03:44:37.755Z,99.90
2019-03-18T03:47:06.219Z,99.90
2019-03-18T03:49:34.679Z,99.90
2019-03-18T03:52:03.183Z,99.90
2019-03-18T03:54:31.694Z,99.90
2019-03-18T03:57:00.394Z,99.90
2019-03-18T03:59:29.025Z,99.90
2019-03-18T04:01:57.539Z,99.90
2019-03-18T04:04:25.988Z,99.90
2019-03-18T04:06:54.598Z,99.90
2019-03-18T04:09:23.209Z,99.90
2019-03-18T04:11:51.667Z,99.90
2019-03-18T04:14:20.418Z,99.90
2019-03-18T04:17:00.880Z,99.90
2019-03-18T04:19:19.070Z,99.90
2019-03-18T04:21:50.659Z,99.90
2019-03-18T04:24:17.799Z,99.90
2019-03-18T04:26:46.276Z,99.90
2019-03-18T04:29:15.019Z,99.90
2019-03-18T04:31:43.487Z,99.90
2019-03-18T04:34:11.944Z,99.90
2019-03-18T04:36:40.420Z,99.90
2019-03-18T04:39:08.937Z,99.90
2019-03-18T04:41:37.473Z,99.90
2019-03-18T04:44:06.018Z,99.90
2019-03-18T04:46:34.501Z,99.90
2019-03-18T04:49:03.022Z,99.90
2019-03-18T04:51:31.503Z,99.90
2019-03-18T04:54:00.053Z,99.90
2019-03-18T04:56:28.514Z,99.90
2019-03-18T04:58:56.975Z,99.90
2019-03-18T05:01:25.773Z,99.90
2019-03-18T05:03:54.247Z,99.90
2019-03-18T05:06:22.700Z,99.90
2019-03-18T05:08:51.170Z,99.90
2019-03-18T05:11:19.903Z,99.90
2019-03-18T05:13:48.415Z,99.90
2019-03-18T05:16:17.019Z,99.90
2019-03-18T05:18:45.461Z,99.90
2019-03-18T05:21:13.929Z,99.90
2019-03-18T05:23:42.401Z,99.90
2019-03-18T05:26:10.881Z,99.90
2019-03-18T05:28:39.345Z,99.90
2019-03-18T05:31:08.159Z,99.90
2019-03-18T05:33:36.625Z,99.90
2019-03-18T05:36:05.078Z,99.90
2019-03-18T05:38:33.542Z,99.90
2019-03-18T05:41:02.003Z,99.90
2019-03-18T05:43:30.501Z,99.90
2019-03-18T05:45:59.370Z,99.90
2019-03-18T05:48:27.849Z,99.90
2019-03-18T05:50:56.316Z,99.90
2019-03-18T05:53:24.772Z,99.90
2019-03-18T05:55:53.255Z,99.90
2019-03-18T05:58:21.746Z,99.90
2019-03-18T06:00:50.236Z,99.90
2019-03-18T06:03:18.705Z,99.90
2019-03-18T06:05:47.161Z,99.90
2019-03-18T06:08:15.638Z,99.90
2019-03-18T06:10:44.118Z,99.90
2019-03-18T06:13:12.575Z,99.90
2019-03-18T06:15:41.044Z,99.90
2019-03-18T06:18:09.839Z,99.90
2019-03-18T06:20:38.298Z,99.90
2019-03-18T06:23:06.767Z,99.90
2019-03-18T06:25:35.240Z,99.90
2019-03-18T06:28:03.769Z,99.90
2019-03-18T06:30:32.242Z,99.90
2019-03-18T06:33:00.737Z,99.90
2019-03-18T06:35:29.520Z,99.90
2019-03-18T06:37:57.980Z,99.90
2019-03-18T06:40:26.427Z,99.90
2019-03-18T06:42:54.899Z,99.90
2019-03-18T06:45:23.384Z,99.90
2019-03-18T06:48:03.847Z,99.90
2019-03-18T06:50:22.038Z,99.90
2019-03-18T06:52:50.524Z,99.90
2019-03-18T06:55:19.003Z,99.90
2019-03-18T06:57:47.465Z,99.90
2019-03-18T07:00:16.923Z,99.90
2019-03-18T07:02:45.384Z,99.90
2019-03-18T07:05:14.386Z,99.90
2019-03-18T07:07:42.919Z,99.90
2019-03-18T07:10:13.162Z,99.90
2019-03-18T07:12:41.721Z,99.90
2019-03-18T07:15:11.148Z,99.90
2019-03-18T07:17:39.616Z,99.90
2019-03-18T07:20:15.595Z,99.90
2019-03-18T07:22:44.193Z,99.90
2019-03-18T07:25:12.791Z,99.90
2019-03-18T07:27:41.660Z,99.90
2019-03-18T07:30:13.009Z,99.90
2019-03-18T07:32:41.488Z,99.90
2019-03-18T07:35:10.083Z,99.90
2019-03-18T07:37:38.865Z,99.90
2019-03-18T07:40:11.348Z,99.90
2019-03-18T07:42:40.012Z,99.90
2019-03-18T07:45:10.679Z,99.90
2019-03-18T07:47:39.444Z,99.90
2019-03-18T07:50:10.254Z,99.90
2019-03-18T07:52:39.067Z,99.90
2019-03-18T07:55:08.549Z,99.90
2019-03-18T07:57:37.027Z,99.90
2019-03-18T08:00:11.148Z,99.90
2019-03-18T08:02:39.858Z,99.90
2019-03-18T08:05:09.966Z,99.90
2019-03-18T08:07:38.409Z,99.90
2019-03-18T08:10:14.708Z,99.90
2019-03-18T08:12:43.273Z,99.90
2019-03-18T08:15:12.780Z,99.90
2019-03-18T08:17:41.245Z,99.90
2019-03-18T08:20:11.737Z,99.90
2019-03-18T08:22:40.202Z,99.90
2019-03-18T08:25:10.023Z,99.90
2019-03-18T08:27:38.474Z,99.90
2019-03-18T08:30:17.291Z,99.90
2019-03-18T08:32:45.800Z,99.90
2019-03-18T08:35:14.265Z,99.90
2019-03-18T08:37:42.756Z,99.90
2019-03-18T08:40:12.064Z,99.90
2019-03-18T08:42:40.550Z,99.90
2019-03-18T08:45:13.780Z,99.90
2019-03-18T08:47:42.641Z,99.90
2019-03-18T08:50:12.352Z,99.90
2019-03-18T08:52:41.341Z,99.90
2019-03-18T08:55:10.942Z,99.90
2019-03-18T08:57:39.478Z,99.90
2019-03-18T09:00:11.092Z,99.90
2019-03-18T09:02:39.577Z,99.90
2019-03-18T09:05:09.057Z,99.90
2019-03-18T09:07:37.547Z,99.90
2019-03-18T09:10:11.539Z,99.90
2019-03-18T09:12:40.015Z,99.90
2019-03-18T09:15:10.404Z,99.90
2019-03-18T09:17:38.883Z,99.90
2019-03-18T09:20:13.016Z,99.90
2019-03-18T09:22:41.492Z,99.90
2019-03-18T09:25:10.993Z,99.90
2019-03-18T09:27:39.508Z,99.90
2019-03-18T09:30:13.366Z,99.90
2019-03-18T09:32:41.902Z,99.90
2019-03-18T09:35:10.920Z,99.90
2019-03-18T09:37:39.550Z,99.90
2019-03-18T09:40:10.475Z,99.90
2019-03-18T09:42:39.241Z,99.90
2019-03-18T09:45:10.842Z,99.90
2019-03-18T09:47:39.577Z,99.90
2019-03-18T09:50:09.799Z,99.90
2019-03-18T09:52:40.060Z,99.90
2019-03-18T09:55:09.155Z,99.90
2019-03-18T09:57:37.701Z,99.90
2019-03-18T10:00:12.447Z,99.90
2019-03-18T10:02:41.330Z,99.90
2019-03-18T10:05:09.874Z,99.90
2019-03-18T10:07:38.317Z,99.90
2019-03-18T10:10:12.201Z,99.90
2019-03-18T10:12:40.736Z,99.90
2019-03-18T10:15:17.583Z,99.90
2019-03-18T10:17:46.137Z,99.90
2019-03-18T10:20:14.651Z,99.90
2019-03-18T10:22:43.520Z,99.90
2019-03-18T10:25:12.065Z,99.90
2019-03-18T10:27:40.593Z,99.90
2019-03-18T10:30:16.149Z,99.90
2019-03-18T10:32:44.675Z,99.90
2019-03-18T10:35:13.291Z,99.90
2019-03-18T10:37:42.095Z,99.90
2019-03-18T10:40:15.099Z,99.90
2019-03-18T10:42:43.547Z,99.90
2019-03-18T10:45:13.280Z,99.90
2019-03-18T10:47:41.911Z,99.90
2019-03-18T10:50:15.343Z,99.90
2019-03-18T10:52:43.820Z,99.90
2019-03-18T10:55:12.535Z,99.90
2019-03-18T10:57:41.150Z,99.90
2019-03-18T11:00:14.491Z,99.90
2019-03-18T11:02:45.101Z,99.90
2019-03-18T11:05:14.029Z,99.90
2019-03-18T11:07:42.909Z,99.90
2019-03-18T11:10:12.905Z,99.90
2019-03-18T11:12:41.849Z,99.90
2019-03-18T11:15:15.266Z,99.90
2019-03-18T11:17:43.832Z,99.90
2019-03-18T11:20:13.931Z,99.90
2019-03-18T11:22:42.437Z,99.90
2019-03-18T11:25:17.194Z,99.90
2019-03-18T11:27:45.746Z,99.90
2019-03-18T11:30:19.091Z,99.90
2019-03-18T11:32:47.543Z,99.90
2019-03-18T11:35:16.026Z,99.90
2019-03-18T11:37:44.627Z,99.90
2019-03-18T11:40:18.659Z,99.90
2019-03-18T11:42:47.255Z,99.90
2019-03-18T11:45:16.682Z,99.90
2019-03-18T11:47:45.281Z,99.90
2019-03-18T11:50:17.832Z,99.90
2019-03-18T11:52:46.430Z,99.90
2019-03-18T11:55:17.218Z,99.90
2019-03-18T11:57:45.735Z,99.90
2019-03-18T12:00:19.097Z,99.90
2019-03-18T12:02:47.637Z,99.90
2019-03-18T12:05:20.902Z,99.90
2019-03-18T12:07:49.433Z,99.90
2019-03-18T12:10:18.996Z,99.90
2019-03-18T12:12:47.463Z,99.90
2019-03-18T12:15:21.589Z,99.90
2019-03-18T12:17:50.591Z,99.90
2019-03-18T12:20:24.678Z,99.40
2019-03-18T12:22:49.313Z,98.70
2019-03-18T12:25:17.946Z,99.90
2019-03-18T12:27:46.496Z,99.90
2019-03-18T12:30:23.102Z,99.90
2019-03-18T12:32:51.653Z,99.70
2019-03-18T12:35:20.339Z,99.10
2019-03-18T12:37:48.875Z,99.50
2019-03-18T12:40:18.087Z,98.00
2019-03-18T12:42:46.696Z,99.70
2019-03-18T12:45:18.793Z,99.80
2019-03-18T12:47:47.480Z,99.90
2019-03-18T12:50:38.519Z,98.70
2019-03-18T12:52:53.871Z,98.80
2019-03-18T12:55:22.361Z,99.50
2019-03-18T12:57:50.827Z,99.70
2019-03-18T13:00:22.010Z,99.10
2019-03-18T13:02:50.554Z,99.60
2019-03-18T13:05:19.353Z,99.60
2019-03-18T13:07:47.975Z,98.60
2019-03-18T13:10:21.807Z,98.10
2019-03-18T13:12:50.577Z,96.50
2019-03-18T13:15:19.994Z,95.80
2019-03-18T13:17:48.608Z,96.50
2019-03-18T13:20:19.070Z,96.50
2019-03-18T13:22:47.582Z,97.50
2019-03-18T13:25:16.087Z,97.90
2019-03-18T13:27:44.749Z,97.90
2019-03-18T13:30:17.050Z,97.60
2019-03-18T13:32:45.746Z,96.50
2019-03-18T13:35:14.811Z,96.80
2019-03-18T13:37:43.356Z,96.90
2019-03-18T13:40:18.980Z,96.20
2019-03-18T13:42:47.582Z,96.10
2019-03-18T13:45:18.770Z,97.40
2019-03-18T13:47:47.288Z,95.20
2019-03-18T13:50:16.979Z,95.70
2019-03-18T13:52:45.515Z,96.50
2019-03-18T13:55:14.066Z,96.10
2019-03-18T13:57:42.519Z,95.00
2019-03-18T14:00:18.942Z,95.90
2019-03-18T14:02:47.463Z,95.60
2019-03-18T14:05:16.065Z,96.70
2019-03-18T14:07:44.604Z,97.40
2019-03-18T14:10:18.283Z,96.90
2019-03-18T14:12:46.737Z,96.70
2019-03-18T14:15:22.726Z,97.20
2019-03-18T14:17:51.414Z,98.00
2019-03-18T14:20:27.423Z,98.10
2019-03-18T14:22:55.988Z,98.60
2019-03-18T14:25:24.520Z,98.70
2019-03-18T14:27:53.368Z,98.50
2019-03-18T14:30:22.763Z,99.90
2019-03-18T14:32:51.225Z,99.90
2019-03-18T14:35:21.553Z,99.90
2019-03-18T14:37:49.899Z,99.90
2019-03-18T14:40:25.143Z,99.90
2019-03-18T14:42:53.626Z,99.10
2019-03-18T14:45:25.217Z,99.50
2019-03-18T14:47:53.944Z,96.50
2019-03-18T14:50:22.461Z,96.10
2019-03-18T14:52:51.091Z,96.10
2019-03-18T14:55:19.652Z,94.60
2019-03-18T14:57:48.253Z,95.10
2019-03-18T15:00:19.789Z,93.20
2019-03-18T15:02:48.343Z,93.20
2019-03-18T15:05:16.905Z,93.80
2019-03-18T15:07:45.345Z,93.60
2019-03-18T15:10:15.567Z,90.70
2019-03-18T15:12:44.107Z,92.40
2019-03-18T15:15:14.733Z,91.00
2019-03-18T15:17:43.185Z,91.90
2019-03-18T15:20:13.389Z,92.00
2019-03-18T15:22:41.877Z,91.70
2019-03-18T15:25:16.656Z,91.80
2019-03-18T15:27:45.174Z,90.20
2019-03-18T15:30:15.998Z,90.60
2019-03-18T15:32:44.460Z,90.10
2019-03-18T15:35:13.537Z,90.20
2019-03-18T15:37:42.005Z,88.70
2019-03-18T15:40:13.289Z,89.80
2019-03-18T15:42:41.777Z,90.80
2019-03-18T15:45:12.729Z,90.10
2019-03-18T15:47:41.207Z,90.00
2019-03-18T15:50:13.114Z,88.90
2019-03-18T15:52:41.823Z,90.70
2019-03-18T15:55:10.405Z,90.30
2019-03-18T15:57:38.887Z,90.50
2019-03-18T16:00:19.033Z,91.20
2019-03-18T16:02:47.547Z,91.00
2019-03-18T16:05:16.054Z,91.90
2019-03-18T16:07:44.610Z,92.60
2019-03-18T16:10:14.723Z,92.40
2019-03-18T16:12:43.561Z,92.60
2019-03-18T16:15:13.692Z,92.70
2019-03-18T16:17:42.485Z,93.20
2019-03-18T16:20:15.632Z,93.70
2019-03-18T16:22:44.181Z,93.70
2019-03-18T16:25:13.068Z,94.10
2019-03-18T16:27:41.543Z,94.50
2019-03-18T16:30:15.171Z,94.90
2019-03-18T16:32:43.775Z,95.10
2019-03-18T16:35:15.863Z,95.20
2019-03-18T16:37:44.120Z,95.60
2019-03-18T16:40:23.899Z,96.00
2019-03-18T16:42:52.390Z,96.20
2019-03-18T16:45:21.093Z,96.40
2019-03-18T16:47:49.573Z,97.20
2019-03-18T16:50:22.707Z,97.40
2019-03-18T16:52:51.251Z,97.50
2019-03-18T16:55:19.895Z,97.60
2019-03-18T16:57:48.699Z,97.80
2019-03-18T17:00:21.083Z,98.20
2019-03-18T17:02:49.659Z,98.70
2019-03-18T17:05:18.350Z,98.10
2019-03-18T17:07:46.821Z,98.20
2019-03-18T17:10:16.157Z,97.80
2019-03-18T17:12:44.720Z,98.10
2019-03-18T17:15:18.227Z,98.20
2019-03-18T17:17:46.714Z,98.60
2019-03-18T17:20:15.905Z,98.80
2019-03-18T17:22:49.428Z,99.20
2019-03-18T17:25:17.717Z,99.90
2019-03-18T17:27:46.225Z,99.90
2019-03-18T17:30:16.623Z,99.90
2019-03-18T17:32:45.249Z,99.90
2019-03-18T17:35:14.639Z,99.90
2019-03-18T17:37:43.269Z,99.90
2019-03-18T17:40:18.820Z,99.90
2019-03-18T17:42:47.285Z,99.90
2019-03-18T17:45:16.787Z,99.90
2019-03-18T17:47:45.715Z,99.90
2019-03-18T17:50:20.393Z,99.90
2019-03-18T17:53:00.987Z,99.90
2019-03-18T17:55:19.123Z,99.90
2019-03-18T17:57:47.827Z,99.90
2019-03-18T18:00:18.826Z,99.90
2019-03-18T18:02:47.318Z,99.90
2019-03-18T18:05:16.060Z,99.90
2019-03-18T18:07:44.637Z,99.90
2019-03-18T18:10:13.242Z,99.90
2019-03-18T18:12:41.706Z,99.90
2019-03-18T18:15:11.870Z,99.90
2019-03-18T18:17:40.348Z,99.90
2019-03-18T18:20:10.977Z,99.90
2019-03-18T18:22:41.039Z,99.90
2019-03-18T18:25:11.054Z,99.90
2019-03-18T18:27:39.593Z,99.90
2019-03-18T18:30:12.595Z,99.90
2019-03-18T18:32:41.346Z,99.90
2019-03-18T18:35:10.632Z,99.90
2019-03-18T18:37:39.130Z,99.90
2019-03-18T18:40:21.834Z,99.90
2019-03-18T18:42:50.317Z,99.90
2019-03-18T18:45:21.151Z,99.90
2019-03-18T18:47:48.955Z,99.90
2019-03-18T18:50:17.592Z,99.90
2019-03-18T18:52:46.126Z,99.90
2019-03-18T18:55:15.024Z,99.90
2019-03-18T18:57:43.736Z,99.90
2019-03-18T19:00:22.872Z,99.90
2019-03-18T19:02:51.401Z,99.90
2019-03-18T19:05:20.019Z,99.90
2019-03-18T19:07:48.502Z,99.90
2019-03-18T19:10:20.541Z,99.90
2019-03-18T19:12:49.141Z,99.90
2019-03-18T19:15:20.407Z,99.90
2019-03-18T19:17:49.033Z,99.90
2019-03-18T19:20:17.873Z,99.90
2019-03-18T19:22:46.392Z,99.90
2019-03-18T19:25:15.802Z,99.90
2019-03-18T19:27:44.326Z,99.90
2019-03-18T19:30:20.996Z,99.90
2019-03-18T19:32:49.555Z,99.90
2019-03-18T19:35:18.089Z,99.90
2019-03-18T19:37:46.542Z,99.90
2019-03-18T19:40:17.322Z,99.90
2019-03-18T19:42:45.953Z,99.90
2019-03-18T19:45:14.747Z,99.90
2019-03-18T19:47:43.299Z,99.90
2019-03-18T19:50:14.848Z,99.90
2019-03-18T19:52:43.382Z,99.90
2019-03-18T19:55:12.177Z,99.90
2019-03-18T19:57:40.980Z,99.90
2019-03-18T20:00:12.572Z,99.90
2019-03-18T20:02:41.282Z,99.90
2019-03-18T20:05:14.943Z,99.90
2019-03-18T20:07:40.037Z,99.90
2019-03-18T20:10:14.282Z,99.90
2019-03-18T20:12:42.803Z,99.90
2019-03-18T20:15:15.755Z,99.90
2019-03-18T20:17:46.046Z,99.90
2019-03-18T20:20:15.830Z,99.90
2019-03-18T20:22:44.926Z,99.90
2019-03-18T20:25:14.136Z,99.90
2019-03-18T20:27:42.671Z,99.90
2019-03-18T20:30:13.989Z,99.90
2019-03-18T20:32:42.446Z,99.90
2019-03-18T20:35:19.381Z,99.90
2019-03-18T20:37:47.850Z,99.90
2019-03-18T20:40:17.340Z,99.90
2019-03-18T20:42:46.238Z,99.90
2019-03-18T20:45:17.140Z,99.90
2019-03-18T20:47:45.661Z,99.90
2019-03-18T20:50:23.789Z,99.90
2019-03-18T20:52:52.463Z,99.90
2019-03-18T20:55:20.916Z,99.90
2019-03-18T20:57:49.400Z,99.90
2019-03-18T21:00:21.492Z,99.90
2019-03-18T21:02:50.039Z,99.90
2019-03-18T21:05:18.725Z,99.90
2019-03-18T21:07:47.226Z,99.90
2019-03-18T21:10:20.561Z,99.90
2019-03-18T21:12:49.157Z,99.90
2019-03-18T21:15:18.188Z,99.90
2019-03-18T21:17:46.705Z,99.90
2019-03-18T21:20:27.205Z,99.90
2019-03-18T21:22:56.027Z,99.90
2019-03-18T21:25:24.482Z,99.90
2019-03-18T21:27:52.969Z,99.90
2019-03-18T21:30:22.298Z,99.90
2019-03-18T21:32:50.906Z,99.90
2019-03-18T21:35:19.451Z,99.90
2019-03-18T21:37:47.981Z,99.90
2019-03-18T21:40:22.859Z,99.90
2019-03-18T21:42:51.453Z,99.90
2019-03-18T21:45:23.269Z,99.90
2019-03-18T21:47:51.265Z,99.90
2019-03-18T21:50:19.846Z,99.90
2019-03-18T21:52:48.395Z,99.90
2019-03-18T21:55:17.899Z,99.90
2019-03-18T21:57:46.358Z,99.90
2019-03-18T22:00:19.002Z,99.90
2019-03-18T22:02:47.594Z,99.90
2019-03-18T22:05:16.165Z,99.90
2019-03-18T22:07:44.779Z,99.90
2019-03-18T22:10:20.029Z,99.90
2019-03-18T22:12:50.369Z,99.90
2019-03-18T22:15:18.976Z,99.90
2019-03-18T22:17:47.529Z,99.90
2019-03-18T22:20:17.020Z,99.90
2019-03-18T22:22:45.544Z,99.90
2019-03-18T22:25:14.745Z,99.90
2019-03-18T22:27:43.368Z,99.90
2019-03-18T22:30:14.030Z,99.90
2019-03-18T22:32:42.533Z,99.90
2019-03-18T22:35:11.284Z,99.90
2019-03-18T22:37:39.756Z,99.90
2019-03-18T22:40:12.330Z,99.90
2019-03-18T22:42:43.969Z,99.90
2019-03-18T22:45:13.921Z,99.90
2019-03-18T22:47:42.421Z,99.90
2019-03-18T22:50:12.072Z,99.90
2019-03-18T22:52:40.602Z,99.90
2019-03-18T22:55:10.857Z,99.90
2019-03-18T22:57:39.603Z,99.90
2019-03-18T23:00:32.334Z,99.90
2019-03-18T23:03:00.783Z,99.90
2019-03-18T23:05:29.307Z,99.90
2019-03-18T23:07:57.779Z,99.90
2019-03-18T23:10:26.306Z,99.90
2019-03-18T23:12:54.792Z,99.90
2019-03-18T23:15:23.233Z,99.90
2019-03-18T23:17:51.778Z,99.90
2019-03-18T23:20:20.234Z,99.90
2019-03-18T23:22:48.721Z,99.90
2019-03-18T23:25:17.185Z,99.90
2019-03-18T23:27:45.653Z,99.90
2019-03-18T23:30:14.935Z,99.90
2019-03-18T23:32:43.425Z,99.90
2019-03-18T23:35:12.588Z,99.90
2019-03-18T23:37:41.038Z,99.90
2019-03-18T23:40:11.934Z,99.90
2019-03-18T23:42:40.737Z,99.90
2019-03-18T23:45:10.351Z,99.90
2019-03-18T23:47:38.838Z,99.90
2019-03-18T23:50:14.674Z,99.90
2019-03-18T23:52:43.113Z,99.90
2019-03-18T23:55:18.862Z,99.90
2019-03-18T23:57:41.978Z,99.90
